<?xml version="1.0" encoding="UTF-8" standalone="no" ?>
<gpx xmlns="http://www.topografix.com/GPX/1/1" xmlns:xsi="http://www.w3.org/2001/XMLSchema-instance" xsi:schemaLocation="http://www.topografix.com/GPX/1/1 http://www.topografix.com/GPX/1/1/gpx.xsd" version="1.1" creator="VisuGPX - https://www.visugpx.com">
  <metadata>
    <name>Randonnée du 17/06/2024 à 12:52</name>
  </metadata>
  <trk>
    <name><![CDATA[Randonnée du 17/06/2024 à 12:52]]></name>
    <extensions>
      <line xmlns="http://www.topografix.com/GPX/gpx_style/0/2">
        <color>0000FF</color>
        <width>4</width>
      </line>
    </extensions>
    <trkseg>
      <trkpt lat="44.27733" lon="1.01136">
        <ele>199.9</ele>
        <time>2024-06-17T13:13:48+02:00</time>
      </trkpt>
      <trkpt lat="44.27709" lon="1.01235">
        <ele>201.9</ele>
      </trkpt>
      <trkpt lat="44.27689" lon="1.01368">
        <ele>206.4</ele>
      </trkpt>
      <trkpt lat="44.27744" lon="1.0139">
        <ele>209.8</ele>
      </trkpt>
      <trkpt lat="44.27867" lon="1.01562">
        <ele>220.3</ele>
        <time>2024-06-17T13:13:58+02:00</time>
      </trkpt>
      <trkpt lat="44.27996" lon="1.01553">
        <ele>222.5</ele>
        <time>2024-06-17T13:14:08+02:00</time>
      </trkpt>
      <trkpt lat="44.28047" lon="1.01529">
        <ele>226.5</ele>
        <time>2024-06-17T13:14:17+02:00</time>
      </trkpt>
      <trkpt lat="44.28147" lon="1.01529">
        <ele>230</ele>
        <time>2024-06-17T13:14:27+02:00</time>
      </trkpt>
      <trkpt lat="44.28205" lon="1.01512">
        <ele>230.8</ele>
        <time>2024-06-17T13:14:36+02:00</time>
      </trkpt>
      <trkpt lat="44.28281" lon="1.01545">
        <ele>233</ele>
      </trkpt>
      <trkpt lat="44.28316" lon="1.01368">
        <ele>233</ele>
      </trkpt>
      <trkpt lat="44.28357" lon="1.0122">
        <ele>233.2</ele>
      </trkpt>
      <trkpt lat="44.2841" lon="1.01077">
        <ele>231.7</ele>
        <time>2024-06-17T13:15:34+02:00</time>
      </trkpt>
      <trkpt lat="44.2842" lon="1.0108">
        <ele>231</ele>
        <time>2024-06-17T13:15:44+02:00</time>
      </trkpt>
      <trkpt lat="44.28431" lon="1.01088">
        <ele>230.2</ele>
        <time>2024-06-17T13:15:54+02:00</time>
      </trkpt>
      <trkpt lat="44.28441" lon="1.01094">
        <ele>229.7</ele>
        <time>2024-06-17T13:16:03+02:00</time>
      </trkpt>
      <trkpt lat="44.28451" lon="1.01096">
        <ele>229.8</ele>
        <time>2024-06-17T13:16:12+02:00</time>
      </trkpt>
      <trkpt lat="44.28459" lon="1.01106">
        <ele>230</ele>
        <time>2024-06-17T13:16:21+02:00</time>
      </trkpt>
      <trkpt lat="44.28465" lon="1.0112">
        <ele>230.5</ele>
        <time>2024-06-17T13:16:31+02:00</time>
      </trkpt>
      <trkpt lat="44.28471" lon="1.01131">
        <ele>230.9</ele>
        <time>2024-06-17T13:16:40+02:00</time>
      </trkpt>
      <trkpt lat="44.28479" lon="1.01145">
        <ele>231</ele>
        <time>2024-06-17T13:16:49+02:00</time>
      </trkpt>
      <trkpt lat="44.2849" lon="1.01154">
        <ele>231</ele>
        <time>2024-06-17T13:16:59+02:00</time>
      </trkpt>
      <trkpt lat="44.28498" lon="1.01166">
        <ele>231</ele>
        <time>2024-06-17T13:17:09+02:00</time>
      </trkpt>
      <trkpt lat="44.28506" lon="1.01177">
        <ele>230.3</ele>
        <time>2024-06-17T13:17:18+02:00</time>
      </trkpt>
      <trkpt lat="44.28517" lon="1.01185">
        <ele>229.5</ele>
        <time>2024-06-17T13:17:28+02:00</time>
      </trkpt>
      <trkpt lat="44.28525" lon="1.01196">
        <ele>229.1</ele>
        <time>2024-06-17T13:17:37+02:00</time>
      </trkpt>
      <trkpt lat="44.28532" lon="1.01208">
        <ele>228.9</ele>
        <time>2024-06-17T13:17:47+02:00</time>
      </trkpt>
      <trkpt lat="44.28542" lon="1.0122">
        <ele>228.5</ele>
        <time>2024-06-17T13:17:57+02:00</time>
      </trkpt>
      <trkpt lat="44.28551" lon="1.01231">
        <ele>227.8</ele>
        <time>2024-06-17T13:18:07+02:00</time>
      </trkpt>
      <trkpt lat="44.28562" lon="1.01241">
        <ele>227.3</ele>
        <time>2024-06-17T13:18:17+02:00</time>
      </trkpt>
      <trkpt lat="44.2857" lon="1.01252">
        <ele>227</ele>
        <time>2024-06-17T13:18:27+02:00</time>
      </trkpt>
      <trkpt lat="44.28579" lon="1.01259">
        <ele>227</ele>
        <time>2024-06-17T13:18:36+02:00</time>
      </trkpt>
      <trkpt lat="44.28588" lon="1.01271">
        <ele>227</ele>
        <time>2024-06-17T13:18:46+02:00</time>
      </trkpt>
      <trkpt lat="44.28597" lon="1.0128">
        <ele>227.1</ele>
        <time>2024-06-17T13:18:56+02:00</time>
      </trkpt>
      <trkpt lat="44.28606" lon="1.01291">
        <ele>227.8</ele>
        <time>2024-06-17T13:19:06+02:00</time>
      </trkpt>
      <trkpt lat="44.28614" lon="1.01298">
        <ele>228.4</ele>
        <time>2024-06-17T13:19:15+02:00</time>
      </trkpt>
      <trkpt lat="44.28622" lon="1.01306">
        <ele>228.6</ele>
        <time>2024-06-17T13:19:25+02:00</time>
      </trkpt>
      <trkpt lat="44.28631" lon="1.01319">
        <ele>228.3</ele>
        <time>2024-06-17T13:19:44+02:00</time>
      </trkpt>
      <trkpt lat="44.28642" lon="1.01334">
        <ele>227.8</ele>
        <time>2024-06-17T13:19:59+02:00</time>
      </trkpt>
      <trkpt lat="44.2865" lon="1.01346">
        <ele>226.7</ele>
        <time>2024-06-17T13:20:09+02:00</time>
      </trkpt>
      <trkpt lat="44.28658" lon="1.01357">
        <ele>225.7</ele>
        <time>2024-06-17T13:20:19+02:00</time>
      </trkpt>
      <trkpt lat="44.28665" lon="1.01368">
        <ele>224.3</ele>
        <time>2024-06-17T13:20:28+02:00</time>
      </trkpt>
      <trkpt lat="44.28672" lon="1.01378">
        <ele>223</ele>
        <time>2024-06-17T13:20:38+02:00</time>
      </trkpt>
      <trkpt lat="44.28679" lon="1.01389">
        <ele>222</ele>
        <time>2024-06-17T13:20:48+02:00</time>
      </trkpt>
      <trkpt lat="44.28688" lon="1.01403">
        <ele>221.1</ele>
        <time>2024-06-17T13:20:58+02:00</time>
      </trkpt>
      <trkpt lat="44.28696" lon="1.01414">
        <ele>220.1</ele>
        <time>2024-06-17T13:21:07+02:00</time>
      </trkpt>
      <trkpt lat="44.28703" lon="1.01428">
        <ele>219.3</ele>
        <time>2024-06-17T13:21:17+02:00</time>
      </trkpt>
      <trkpt lat="44.2871" lon="1.0144">
        <ele>218.6</ele>
        <time>2024-06-17T13:21:27+02:00</time>
      </trkpt>
      <trkpt lat="44.28717" lon="1.01455">
        <ele>217.8</ele>
        <time>2024-06-17T13:21:36+02:00</time>
      </trkpt>
      <trkpt lat="44.28726" lon="1.01466">
        <ele>217</ele>
        <time>2024-06-17T13:21:46+02:00</time>
      </trkpt>
      <trkpt lat="44.28734" lon="1.01478">
        <ele>215.9</ele>
        <time>2024-06-17T13:21:56+02:00</time>
      </trkpt>
      <trkpt lat="44.2874" lon="1.01489">
        <ele>215.1</ele>
        <time>2024-06-17T13:22:05+02:00</time>
      </trkpt>
      <trkpt lat="44.28747" lon="1.015">
        <ele>214.2</ele>
        <time>2024-06-17T13:22:15+02:00</time>
      </trkpt>
      <trkpt lat="44.28754" lon="1.01511">
        <ele>213.6</ele>
        <time>2024-06-17T13:22:24+02:00</time>
      </trkpt>
      <trkpt lat="44.28761" lon="1.01523">
        <ele>212.9</ele>
        <time>2024-06-17T13:22:34+02:00</time>
      </trkpt>
      <trkpt lat="44.2877" lon="1.01531">
        <ele>212.1</ele>
        <time>2024-06-17T13:22:49+02:00</time>
      </trkpt>
      <trkpt lat="44.28764" lon="1.01542">
        <ele>213.5</ele>
        <time>2024-06-17T13:22:59+02:00</time>
      </trkpt>
      <trkpt lat="44.28767" lon="1.01551">
        <ele>214</ele>
      </trkpt>
      <trkpt lat="44.28756" lon="1.01553">
        <ele>214.6</ele>
        <time>2024-06-17T13:23:08+02:00</time>
      </trkpt>
      <trkpt lat="44.28748" lon="1.01566">
        <ele>215.5</ele>
        <time>2024-06-17T13:23:17+02:00</time>
      </trkpt>
      <trkpt lat="44.2874" lon="1.01575">
        <ele>216.1</ele>
        <time>2024-06-17T13:23:27+02:00</time>
      </trkpt>
      <trkpt lat="44.28732" lon="1.01583">
        <ele>216.6</ele>
        <time>2024-06-17T13:23:36+02:00</time>
      </trkpt>
      <trkpt lat="44.28723" lon="1.01591">
        <ele>217.3</ele>
        <time>2024-06-17T13:23:46+02:00</time>
      </trkpt>
      <trkpt lat="44.28715" lon="1.01601">
        <ele>218.3</ele>
        <time>2024-06-17T13:23:56+02:00</time>
      </trkpt>
      <trkpt lat="44.28708" lon="1.0161">
        <ele>219.4</ele>
        <time>2024-06-17T13:24:05+02:00</time>
      </trkpt>
      <trkpt lat="44.28701" lon="1.01618">
        <ele>220.7</ele>
        <time>2024-06-17T13:24:15+02:00</time>
      </trkpt>
      <trkpt lat="44.28692" lon="1.01625">
        <ele>222.3</ele>
        <time>2024-06-17T13:24:30+02:00</time>
      </trkpt>
      <trkpt lat="44.28687" lon="1.01636">
        <ele>223.8</ele>
        <time>2024-06-17T13:24:49+02:00</time>
      </trkpt>
      <trkpt lat="44.2868" lon="1.01649">
        <ele>225.1</ele>
        <time>2024-06-17T13:25:08+02:00</time>
      </trkpt>
      <trkpt lat="44.28673" lon="1.01658">
        <ele>226.1</ele>
        <time>2024-06-17T13:25:18+02:00</time>
      </trkpt>
      <trkpt lat="44.28665" lon="1.01672">
        <ele>227.1</ele>
        <time>2024-06-17T13:25:32+02:00</time>
      </trkpt>
      <trkpt lat="44.28658" lon="1.01681">
        <ele>227.5</ele>
        <time>2024-06-17T13:25:42+02:00</time>
      </trkpt>
      <trkpt lat="44.2865" lon="1.01691">
        <ele>228.2</ele>
        <time>2024-06-17T13:25:52+02:00</time>
      </trkpt>
      <trkpt lat="44.28643" lon="1.01701">
        <ele>228.7</ele>
        <time>2024-06-17T13:26:02+02:00</time>
      </trkpt>
      <trkpt lat="44.28635" lon="1.01711">
        <ele>228.9</ele>
        <time>2024-06-17T13:26:12+02:00</time>
      </trkpt>
      <trkpt lat="44.28631" lon="1.01727">
        <ele>228.8</ele>
        <time>2024-06-17T13:26:22+02:00</time>
      </trkpt>
      <trkpt lat="44.28623" lon="1.01736">
        <ele>228.6</ele>
        <time>2024-06-17T13:26:32+02:00</time>
      </trkpt>
      <trkpt lat="44.28613" lon="1.01752">
        <ele>228.8</ele>
        <time>2024-06-17T13:26:46+02:00</time>
      </trkpt>
      <trkpt lat="44.28606" lon="1.01764">
        <ele>228.7</ele>
        <time>2024-06-17T13:26:56+02:00</time>
      </trkpt>
      <trkpt lat="44.28598" lon="1.01775">
        <ele>228.9</ele>
        <time>2024-06-17T13:27:05+02:00</time>
      </trkpt>
      <trkpt lat="44.28592" lon="1.01784">
        <ele>229.4</ele>
        <time>2024-06-17T13:27:15+02:00</time>
      </trkpt>
      <trkpt lat="44.28581" lon="1.01796">
        <ele>230</ele>
        <time>2024-06-17T13:27:24+02:00</time>
      </trkpt>
      <trkpt lat="44.28569" lon="1.01811">
        <ele>230.1</ele>
        <time>2024-06-17T13:27:38+02:00</time>
      </trkpt>
      <trkpt lat="44.28563" lon="1.01823">
        <ele>230.4</ele>
        <time>2024-06-17T13:27:48+02:00</time>
      </trkpt>
      <trkpt lat="44.28555" lon="1.01832">
        <ele>230.9</ele>
        <time>2024-06-17T13:27:57+02:00</time>
      </trkpt>
      <trkpt lat="44.28547" lon="1.01842">
        <ele>231.1</ele>
        <time>2024-06-17T13:28:06+02:00</time>
      </trkpt>
      <trkpt lat="44.28537" lon="1.01857">
        <ele>231.6</ele>
        <time>2024-06-17T13:28:21+02:00</time>
      </trkpt>
      <trkpt lat="44.28529" lon="1.01866">
        <ele>231.8</ele>
        <time>2024-06-17T13:28:30+02:00</time>
      </trkpt>
      <trkpt lat="44.28522" lon="1.01877">
        <ele>231.5</ele>
        <time>2024-06-17T13:28:40+02:00</time>
      </trkpt>
      <trkpt lat="44.28523" lon="1.01894">
        <ele>231</ele>
        <time>2024-06-17T13:28:59+02:00</time>
      </trkpt>
      <trkpt lat="44.28534" lon="1.019">
        <ele>230.4</ele>
        <time>2024-06-17T13:29:09+02:00</time>
      </trkpt>
      <trkpt lat="44.28542" lon="1.01908">
        <ele>229.8</ele>
        <time>2024-06-17T13:29:18+02:00</time>
      </trkpt>
      <trkpt lat="44.28551" lon="1.01919">
        <ele>229</ele>
        <time>2024-06-17T13:29:28+02:00</time>
      </trkpt>
      <trkpt lat="44.28561" lon="1.01927">
        <ele>228</ele>
        <time>2024-06-17T13:29:37+02:00</time>
      </trkpt>
      <trkpt lat="44.2857" lon="1.01935">
        <ele>227.3</ele>
        <time>2024-06-17T13:29:47+02:00</time>
      </trkpt>
      <trkpt lat="44.28578" lon="1.01942">
        <ele>227</ele>
        <time>2024-06-17T13:29:56+02:00</time>
      </trkpt>
      <trkpt lat="44.28587" lon="1.01952">
        <ele>226.6</ele>
        <time>2024-06-17T13:30:06+02:00</time>
      </trkpt>
      <trkpt lat="44.28596" lon="1.01962">
        <ele>225.9</ele>
        <time>2024-06-17T13:30:15+02:00</time>
      </trkpt>
      <trkpt lat="44.28602" lon="1.01971">
        <ele>225.4</ele>
        <time>2024-06-17T13:30:25+02:00</time>
      </trkpt>
      <trkpt lat="44.2861" lon="1.01986">
        <ele>225</ele>
        <time>2024-06-17T13:30:35+02:00</time>
      </trkpt>
      <trkpt lat="44.28617" lon="1.01999">
        <ele>224.8</ele>
        <time>2024-06-17T13:30:44+02:00</time>
      </trkpt>
      <trkpt lat="44.28624" lon="1.02011">
        <ele>224.5</ele>
        <time>2024-06-17T13:30:54+02:00</time>
      </trkpt>
      <trkpt lat="44.28632" lon="1.02025">
        <ele>224.2</ele>
        <time>2024-06-17T13:31:04+02:00</time>
      </trkpt>
      <trkpt lat="44.28639" lon="1.02038">
        <ele>224.3</ele>
        <time>2024-06-17T13:31:13+02:00</time>
      </trkpt>
      <trkpt lat="44.28647" lon="1.0205">
        <ele>224.2</ele>
        <time>2024-06-17T13:31:23+02:00</time>
      </trkpt>
      <trkpt lat="44.28654" lon="1.02061">
        <ele>224.1</ele>
        <time>2024-06-17T13:31:32+02:00</time>
      </trkpt>
      <trkpt lat="44.28661" lon="1.02076">
        <ele>224.6</ele>
        <time>2024-06-17T13:31:42+02:00</time>
      </trkpt>
      <trkpt lat="44.28669" lon="1.02088">
        <ele>224.7</ele>
        <time>2024-06-17T13:31:52+02:00</time>
      </trkpt>
      <trkpt lat="44.28673" lon="1.02102">
        <ele>224.3</ele>
        <time>2024-06-17T13:32:01+02:00</time>
      </trkpt>
      <trkpt lat="44.28665" lon="1.02109">
        <ele>224.1</ele>
        <time>2024-06-17T13:32:41+02:00</time>
      </trkpt>
      <trkpt lat="44.28655" lon="1.02116">
        <ele>224.1</ele>
        <time>2024-06-17T13:32:51+02:00</time>
      </trkpt>
      <trkpt lat="44.28647" lon="1.02127">
        <ele>223.8</ele>
        <time>2024-06-17T13:33:00+02:00</time>
      </trkpt>
      <trkpt lat="44.28637" lon="1.02138">
        <ele>223.1</ele>
        <time>2024-06-17T13:33:09+02:00</time>
      </trkpt>
      <trkpt lat="44.28628" lon="1.02146">
        <ele>222.6</ele>
        <time>2024-06-17T13:33:19+02:00</time>
      </trkpt>
      <trkpt lat="44.28618" lon="1.02157">
        <ele>222.2</ele>
        <time>2024-06-17T13:33:29+02:00</time>
      </trkpt>
      <trkpt lat="44.28608" lon="1.02166">
        <ele>222.1</ele>
        <time>2024-06-17T13:33:39+02:00</time>
      </trkpt>
      <trkpt lat="44.28599" lon="1.02175">
        <ele>222</ele>
        <time>2024-06-17T13:33:48+02:00</time>
      </trkpt>
      <trkpt lat="44.28587" lon="1.02185">
        <ele>222.1</ele>
        <time>2024-06-17T13:33:58+02:00</time>
      </trkpt>
      <trkpt lat="44.28576" lon="1.02197">
        <ele>222.5</ele>
        <time>2024-06-17T13:34:08+02:00</time>
      </trkpt>
      <trkpt lat="44.28566" lon="1.02204">
        <ele>222.9</ele>
        <time>2024-06-17T13:34:18+02:00</time>
      </trkpt>
      <trkpt lat="44.28556" lon="1.02216">
        <ele>223.2</ele>
        <time>2024-06-17T13:34:28+02:00</time>
      </trkpt>
      <trkpt lat="44.28545" lon="1.02226">
        <ele>223.5</ele>
        <time>2024-06-17T13:34:38+02:00</time>
      </trkpt>
      <trkpt lat="44.28535" lon="1.02236">
        <ele>223.6</ele>
        <time>2024-06-17T13:34:48+02:00</time>
      </trkpt>
      <trkpt lat="44.28525" lon="1.02245">
        <ele>223.6</ele>
        <time>2024-06-17T13:34:58+02:00</time>
      </trkpt>
      <trkpt lat="44.28513" lon="1.02254">
        <ele>223.8</ele>
        <time>2024-06-17T13:35:08+02:00</time>
      </trkpt>
      <trkpt lat="44.28503" lon="1.02267">
        <ele>223.6</ele>
        <time>2024-06-17T13:35:18+02:00</time>
      </trkpt>
      <trkpt lat="44.28494" lon="1.02271">
        <ele>224.2</ele>
        <time>2024-06-17T13:35:48+02:00</time>
      </trkpt>
      <trkpt lat="44.28485" lon="1.02275">
        <ele>224.8</ele>
        <time>2024-06-17T13:36:38+02:00</time>
      </trkpt>
      <trkpt lat="44.28478" lon="1.02284">
        <ele>225</ele>
        <time>2024-06-17T13:36:53+02:00</time>
      </trkpt>
      <trkpt lat="44.28471" lon="1.02295">
        <ele>224.9</ele>
        <time>2024-06-17T13:37:07+02:00</time>
      </trkpt>
      <trkpt lat="44.28462" lon="1.02301">
        <ele>225.4</ele>
        <time>2024-06-17T13:37:17+02:00</time>
      </trkpt>
      <trkpt lat="44.28453" lon="1.02307">
        <ele>226</ele>
        <time>2024-06-17T13:37:26+02:00</time>
      </trkpt>
      <trkpt lat="44.28444" lon="1.02315">
        <ele>226.3</ele>
        <time>2024-06-17T13:37:40+02:00</time>
      </trkpt>
      <trkpt lat="44.28435" lon="1.02323">
        <ele>226.3</ele>
        <time>2024-06-17T13:37:50+02:00</time>
      </trkpt>
      <trkpt lat="44.28426" lon="1.02331">
        <ele>226.4</ele>
        <time>2024-06-17T13:37:59+02:00</time>
      </trkpt>
      <trkpt lat="44.28418" lon="1.02338">
        <ele>226.7</ele>
        <time>2024-06-17T13:38:08+02:00</time>
      </trkpt>
      <trkpt lat="44.28409" lon="1.02348">
        <ele>226.7</ele>
        <time>2024-06-17T13:38:17+02:00</time>
      </trkpt>
      <trkpt lat="44.28402" lon="1.02359">
        <ele>226.6</ele>
        <time>2024-06-17T13:38:27+02:00</time>
      </trkpt>
      <trkpt lat="44.28395" lon="1.0237">
        <ele>226.4</ele>
        <time>2024-06-17T13:38:36+02:00</time>
      </trkpt>
      <trkpt lat="44.28386" lon="1.02383">
        <ele>226.3</ele>
        <time>2024-06-17T13:38:51+02:00</time>
      </trkpt>
      <trkpt lat="44.28379" lon="1.02398">
        <ele>225.9</ele>
        <time>2024-06-17T13:39:01+02:00</time>
      </trkpt>
      <trkpt lat="44.28373" lon="1.02411">
        <ele>225.9</ele>
        <time>2024-06-17T13:39:10+02:00</time>
      </trkpt>
      <trkpt lat="44.28365" lon="1.02422">
        <ele>226.5</ele>
        <time>2024-06-17T13:39:19+02:00</time>
      </trkpt>
      <trkpt lat="44.28358" lon="1.02434">
        <ele>227.1</ele>
        <time>2024-06-17T13:39:28+02:00</time>
      </trkpt>
      <trkpt lat="44.28349" lon="1.02448">
        <ele>227.3</ele>
        <time>2024-06-17T13:39:38+02:00</time>
      </trkpt>
      <trkpt lat="44.28342" lon="1.0246">
        <ele>227.1</ele>
        <time>2024-06-17T13:39:47+02:00</time>
      </trkpt>
      <trkpt lat="44.28335" lon="1.02473">
        <ele>226.9</ele>
        <time>2024-06-17T13:39:57+02:00</time>
      </trkpt>
      <trkpt lat="44.28328" lon="1.02486">
        <ele>226.8</ele>
        <time>2024-06-17T13:40:07+02:00</time>
      </trkpt>
      <trkpt lat="44.28321" lon="1.025">
        <ele>226.9</ele>
        <time>2024-06-17T13:40:17+02:00</time>
      </trkpt>
      <trkpt lat="44.28314" lon="1.02514">
        <ele>227.5</ele>
        <time>2024-06-17T13:40:27+02:00</time>
      </trkpt>
      <trkpt lat="44.28307" lon="1.02526">
        <ele>228</ele>
        <time>2024-06-17T13:40:37+02:00</time>
      </trkpt>
      <trkpt lat="44.283" lon="1.02537">
        <ele>228.5</ele>
        <time>2024-06-17T13:40:46+02:00</time>
      </trkpt>
      <trkpt lat="44.28295" lon="1.02548">
        <ele>228.8</ele>
        <time>2024-06-17T13:40:51+02:00</time>
      </trkpt>
      <trkpt lat="44.28289" lon="1.02561">
        <ele>229.2</ele>
        <time>2024-06-17T13:41:00+02:00</time>
      </trkpt>
      <trkpt lat="44.28282" lon="1.02578">
        <ele>229.8</ele>
        <time>2024-06-17T13:41:10+02:00</time>
      </trkpt>
      <trkpt lat="44.28272" lon="1.02594">
        <ele>230.9</ele>
        <time>2024-06-17T13:41:20+02:00</time>
      </trkpt>
      <trkpt lat="44.28262" lon="1.02608">
        <ele>231.8</ele>
        <time>2024-06-17T13:41:30+02:00</time>
      </trkpt>
      <trkpt lat="44.28253" lon="1.02623">
        <ele>232.4</ele>
        <time>2024-06-17T13:41:40+02:00</time>
      </trkpt>
      <trkpt lat="44.28247" lon="1.02636">
        <ele>232.9</ele>
        <time>2024-06-17T13:41:50+02:00</time>
      </trkpt>
      <trkpt lat="44.28238" lon="1.02648">
        <ele>233.3</ele>
        <time>2024-06-17T13:42:00+02:00</time>
      </trkpt>
      <trkpt lat="44.28232" lon="1.02663">
        <ele>233.9</ele>
        <time>2024-06-17T13:42:10+02:00</time>
      </trkpt>
      <trkpt lat="44.28225" lon="1.02678">
        <ele>234</ele>
        <time>2024-06-17T13:42:20+02:00</time>
      </trkpt>
      <trkpt lat="44.28229" lon="1.02694">
        <ele>234</ele>
        <time>2024-06-17T13:42:29+02:00</time>
      </trkpt>
      <trkpt lat="44.28234" lon="1.02705">
        <ele>233.8</ele>
        <time>2024-06-17T13:42:39+02:00</time>
      </trkpt>
      <trkpt lat="44.28241" lon="1.02725">
        <ele>233.7</ele>
        <time>2024-06-17T13:42:48+02:00</time>
      </trkpt>
      <trkpt lat="44.28247" lon="1.02739">
        <ele>233.9</ele>
        <time>2024-06-17T13:42:58+02:00</time>
      </trkpt>
      <trkpt lat="44.28253" lon="1.02752">
        <ele>234</ele>
        <time>2024-06-17T13:43:08+02:00</time>
      </trkpt>
      <trkpt lat="44.28258" lon="1.02768">
        <ele>234</ele>
        <time>2024-06-17T13:43:17+02:00</time>
      </trkpt>
      <trkpt lat="44.28263" lon="1.02783">
        <ele>233.8</ele>
        <time>2024-06-17T13:43:27+02:00</time>
      </trkpt>
      <trkpt lat="44.28269" lon="1.02799">
        <ele>233.3</ele>
        <time>2024-06-17T13:43:37+02:00</time>
      </trkpt>
      <trkpt lat="44.28277" lon="1.02816">
        <ele>233</ele>
        <time>2024-06-17T13:43:47+02:00</time>
      </trkpt>
      <trkpt lat="44.28282" lon="1.02827">
        <ele>232.7</ele>
        <time>2024-06-17T13:43:56+02:00</time>
      </trkpt>
      <trkpt lat="44.28288" lon="1.02846">
        <ele>232</ele>
        <time>2024-06-17T13:44:06+02:00</time>
      </trkpt>
      <trkpt lat="44.28295" lon="1.02864">
        <ele>231.4</ele>
        <time>2024-06-17T13:44:16+02:00</time>
      </trkpt>
      <trkpt lat="44.28301" lon="1.0288">
        <ele>231.2</ele>
        <time>2024-06-17T13:44:26+02:00</time>
      </trkpt>
      <trkpt lat="44.28303" lon="1.02894">
        <ele>231.1</ele>
        <time>2024-06-17T13:44:35+02:00</time>
      </trkpt>
      <trkpt lat="44.28306" lon="1.02908">
        <ele>230.9</ele>
        <time>2024-06-17T13:44:44+02:00</time>
      </trkpt>
      <trkpt lat="44.28311" lon="1.02925">
        <ele>230.7</ele>
        <time>2024-06-17T13:44:54+02:00</time>
      </trkpt>
      <trkpt lat="44.28313" lon="1.02942">
        <ele>231.1</ele>
        <time>2024-06-17T13:45:04+02:00</time>
      </trkpt>
      <trkpt lat="44.28316" lon="1.02958">
        <ele>231.2</ele>
        <time>2024-06-17T13:45:13+02:00</time>
      </trkpt>
      <trkpt lat="44.2832" lon="1.02974">
        <ele>231.5</ele>
        <time>2024-06-17T13:45:23+02:00</time>
      </trkpt>
      <trkpt lat="44.28325" lon="1.0299">
        <ele>231.7</ele>
        <time>2024-06-17T13:45:32+02:00</time>
      </trkpt>
      <trkpt lat="44.28326" lon="1.03009">
        <ele>232.6</ele>
        <time>2024-06-17T13:45:42+02:00</time>
      </trkpt>
      <trkpt lat="44.28326" lon="1.03028">
        <ele>233.7</ele>
        <time>2024-06-17T13:45:51+02:00</time>
      </trkpt>
      <trkpt lat="44.2832" lon="1.03045">
        <ele>234.1</ele>
        <time>2024-06-17T13:46:01+02:00</time>
      </trkpt>
      <trkpt lat="44.28312" lon="1.03055">
        <ele>234.2</ele>
        <time>2024-06-17T13:46:10+02:00</time>
      </trkpt>
      <trkpt lat="44.28303" lon="1.03064">
        <ele>234.1</ele>
        <time>2024-06-17T13:46:20+02:00</time>
      </trkpt>
      <trkpt lat="44.28294" lon="1.03076">
        <ele>233.9</ele>
        <time>2024-06-17T13:46:30+02:00</time>
      </trkpt>
      <trkpt lat="44.28285" lon="1.03089">
        <ele>233.7</ele>
        <time>2024-06-17T13:46:39+02:00</time>
      </trkpt>
      <trkpt lat="44.28275" lon="1.03099">
        <ele>233.3</ele>
        <time>2024-06-17T13:46:49+02:00</time>
      </trkpt>
      <trkpt lat="44.28268" lon="1.03111">
        <ele>232.9</ele>
        <time>2024-06-17T13:46:58+02:00</time>
      </trkpt>
      <trkpt lat="44.28258" lon="1.03123">
        <ele>232.6</ele>
        <time>2024-06-17T13:47:08+02:00</time>
      </trkpt>
      <trkpt lat="44.28249" lon="1.03135">
        <ele>232.6</ele>
        <time>2024-06-17T13:47:17+02:00</time>
      </trkpt>
      <trkpt lat="44.28241" lon="1.03146">
        <ele>232.6</ele>
        <time>2024-06-17T13:47:26+02:00</time>
      </trkpt>
      <trkpt lat="44.28232" lon="1.03156">
        <ele>232.7</ele>
        <time>2024-06-17T13:47:36+02:00</time>
      </trkpt>
      <trkpt lat="44.28223" lon="1.03171">
        <ele>233.3</ele>
        <time>2024-06-17T13:47:46+02:00</time>
      </trkpt>
      <trkpt lat="44.28213" lon="1.03183">
        <ele>232.7</ele>
        <time>2024-06-17T13:47:56+02:00</time>
      </trkpt>
      <trkpt lat="44.28204" lon="1.03197">
        <ele>232.6</ele>
        <time>2024-06-17T13:48:06+02:00</time>
      </trkpt>
      <trkpt lat="44.28197" lon="1.03211">
        <ele>232.5</ele>
        <time>2024-06-17T13:48:15+02:00</time>
      </trkpt>
      <trkpt lat="44.28189" lon="1.03223">
        <ele>232</ele>
        <time>2024-06-17T13:48:25+02:00</time>
      </trkpt>
      <trkpt lat="44.2818" lon="1.03236">
        <ele>231.2</ele>
        <time>2024-06-17T13:48:35+02:00</time>
      </trkpt>
      <trkpt lat="44.28175" lon="1.03253">
        <ele>231.2</ele>
        <time>2024-06-17T13:48:45+02:00</time>
      </trkpt>
      <trkpt lat="44.28171" lon="1.03268">
        <ele>231</ele>
        <time>2024-06-17T13:48:54+02:00</time>
      </trkpt>
      <trkpt lat="44.28173" lon="1.03281">
        <ele>231.1</ele>
        <time>2024-06-17T13:49:29+02:00</time>
      </trkpt>
      <trkpt lat="44.2818" lon="1.03294">
        <ele>230.6</ele>
        <time>2024-06-17T13:49:39+02:00</time>
      </trkpt>
      <trkpt lat="44.2819" lon="1.03305">
        <ele>230.1</ele>
        <time>2024-06-17T13:49:49+02:00</time>
      </trkpt>
      <trkpt lat="44.28199" lon="1.03314">
        <ele>229.4</ele>
        <time>2024-06-17T13:49:58+02:00</time>
      </trkpt>
      <trkpt lat="44.28208" lon="1.0332">
        <ele>229</ele>
        <time>2024-06-17T13:50:08+02:00</time>
      </trkpt>
      <trkpt lat="44.28219" lon="1.03324">
        <ele>228.7</ele>
        <time>2024-06-17T13:50:23+02:00</time>
      </trkpt>
      <trkpt lat="44.28228" lon="1.03331">
        <ele>228.4</ele>
        <time>2024-06-17T13:50:33+02:00</time>
      </trkpt>
      <trkpt lat="44.28235" lon="1.03342">
        <ele>227.6</ele>
        <time>2024-06-17T13:50:42+02:00</time>
      </trkpt>
      <trkpt lat="44.28245" lon="1.03355">
        <ele>227.1</ele>
        <time>2024-06-17T13:50:52+02:00</time>
      </trkpt>
      <trkpt lat="44.28256" lon="1.03369">
        <ele>226.7</ele>
        <time>2024-06-17T13:51:02+02:00</time>
      </trkpt>
      <trkpt lat="44.28263" lon="1.03381">
        <ele>225.9</ele>
        <time>2024-06-17T13:51:11+02:00</time>
      </trkpt>
      <trkpt lat="44.28267" lon="1.03393">
        <ele>224.7</ele>
        <time>2024-06-17T13:51:21+02:00</time>
      </trkpt>
      <trkpt lat="44.28259" lon="1.03406">
        <ele>223.4</ele>
        <time>2024-06-17T13:51:31+02:00</time>
      </trkpt>
      <trkpt lat="44.28254" lon="1.03419">
        <ele>221.9</ele>
        <time>2024-06-17T13:51:40+02:00</time>
      </trkpt>
      <trkpt lat="44.28248" lon="1.03432">
        <ele>220.9</ele>
        <time>2024-06-17T13:51:50+02:00</time>
      </trkpt>
      <trkpt lat="44.28243" lon="1.03445">
        <ele>220</ele>
        <time>2024-06-17T13:51:59+02:00</time>
      </trkpt>
      <trkpt lat="44.28235" lon="1.03464">
        <ele>218.2</ele>
        <time>2024-06-17T13:52:14+02:00</time>
      </trkpt>
      <trkpt lat="44.28231" lon="1.03476">
        <ele>217.4</ele>
        <time>2024-06-17T13:52:23+02:00</time>
      </trkpt>
      <trkpt lat="44.28223" lon="1.0349">
        <ele>216.1</ele>
        <time>2024-06-17T13:52:37+02:00</time>
      </trkpt>
      <trkpt lat="44.28212" lon="1.03493">
        <ele>214.8</ele>
        <time>2024-06-17T13:52:47+02:00</time>
      </trkpt>
      <trkpt lat="44.282" lon="1.03495">
        <ele>213.3</ele>
        <time>2024-06-17T13:53:01+02:00</time>
      </trkpt>
      <trkpt lat="44.28189" lon="1.03495">
        <ele>212.5</ele>
        <time>2024-06-17T13:53:16+02:00</time>
      </trkpt>
      <trkpt lat="44.2818" lon="1.03498">
        <ele>210.9</ele>
        <time>2024-06-17T13:53:26+02:00</time>
      </trkpt>
      <trkpt lat="44.28171" lon="1.03502">
        <ele>209</ele>
        <time>2024-06-17T13:53:54+02:00</time>
      </trkpt>
      <trkpt lat="44.28161" lon="1.03507">
        <ele>207</ele>
        <time>2024-06-17T13:54:09+02:00</time>
      </trkpt>
      <trkpt lat="44.28151" lon="1.0351">
        <ele>205.9</ele>
        <time>2024-06-17T13:54:33+02:00</time>
      </trkpt>
      <trkpt lat="44.28139" lon="1.03512">
        <ele>205</ele>
        <time>2024-06-17T13:55:23+02:00</time>
      </trkpt>
      <trkpt lat="44.28128" lon="1.03509">
        <ele>203.1</ele>
        <time>2024-06-17T13:55:32+02:00</time>
      </trkpt>
      <trkpt lat="44.28119" lon="1.0352">
        <ele>200.7</ele>
        <time>2024-06-17T13:55:46+02:00</time>
      </trkpt>
      <trkpt lat="44.2811" lon="1.03529">
        <ele>200.2</ele>
        <time>2024-06-17T13:56:11+02:00</time>
      </trkpt>
      <trkpt lat="44.28098" lon="1.03532">
        <ele>201.8</ele>
        <time>2024-06-17T13:56:21+02:00</time>
      </trkpt>
      <trkpt lat="44.28087" lon="1.03528">
        <ele>202.7</ele>
        <time>2024-06-17T13:56:35+02:00</time>
      </trkpt>
      <trkpt lat="44.28076" lon="1.03519">
        <ele>203</ele>
        <time>2024-06-17T13:56:50+02:00</time>
      </trkpt>
      <trkpt lat="44.28066" lon="1.03515">
        <ele>203.9</ele>
        <time>2024-06-17T13:57:00+02:00</time>
      </trkpt>
      <trkpt lat="44.28056" lon="1.03514">
        <ele>205.5</ele>
        <time>2024-06-17T13:57:10+02:00</time>
      </trkpt>
      <trkpt lat="44.28042" lon="1.03514">
        <ele>207</ele>
        <time>2024-06-17T13:57:25+02:00</time>
      </trkpt>
      <trkpt lat="44.2803" lon="1.03511">
        <ele>207.7</ele>
        <time>2024-06-17T13:57:39+02:00</time>
      </trkpt>
      <trkpt lat="44.2802" lon="1.03515">
        <ele>208.9</ele>
        <time>2024-06-17T13:57:53+02:00</time>
      </trkpt>
      <trkpt lat="44.28027" lon="1.03527">
        <ele>210.9</ele>
        <time>2024-06-17T13:59:16+02:00</time>
      </trkpt>
      <trkpt lat="44.28025" lon="1.03541">
        <ele>212.5</ele>
        <time>2024-06-17T13:59:26+02:00</time>
      </trkpt>
      <trkpt lat="44.28023" lon="1.03555">
        <ele>213.9</ele>
        <time>2024-06-17T13:59:36+02:00</time>
      </trkpt>
      <trkpt lat="44.28021" lon="1.03574">
        <ele>215.5</ele>
        <time>2024-06-17T13:59:51+02:00</time>
      </trkpt>
      <trkpt lat="44.28018" lon="1.03587">
        <ele>216.7</ele>
        <time>2024-06-17T14:00:00+02:00</time>
      </trkpt>
      <trkpt lat="44.28017" lon="1.036">
        <ele>217.8</ele>
        <time>2024-06-17T14:00:10+02:00</time>
      </trkpt>
      <trkpt lat="44.28016" lon="1.03613">
        <ele>219</ele>
        <time>2024-06-17T14:00:19+02:00</time>
      </trkpt>
      <trkpt lat="44.28014" lon="1.0363">
        <ele>220.3</ele>
        <time>2024-06-17T14:00:33+02:00</time>
      </trkpt>
      <trkpt lat="44.28012" lon="1.03647">
        <ele>221.7</ele>
        <time>2024-06-17T14:00:47+02:00</time>
      </trkpt>
      <trkpt lat="44.28009" lon="1.03665">
        <ele>223.3</ele>
        <time>2024-06-17T14:01:02+02:00</time>
      </trkpt>
      <trkpt lat="44.28008" lon="1.03678">
        <ele>223.9</ele>
        <time>2024-06-17T14:01:11+02:00</time>
      </trkpt>
      <trkpt lat="44.28007" lon="1.03691">
        <ele>224.6</ele>
        <time>2024-06-17T14:01:21+02:00</time>
      </trkpt>
      <trkpt lat="44.28007" lon="1.03706">
        <ele>225.4</ele>
        <time>2024-06-17T14:01:31+02:00</time>
      </trkpt>
      <trkpt lat="44.28005" lon="1.0372">
        <ele>226.1</ele>
        <time>2024-06-17T14:01:41+02:00</time>
      </trkpt>
      <trkpt lat="44.28004" lon="1.03736">
        <ele>227.7</ele>
        <time>2024-06-17T14:01:56+02:00</time>
      </trkpt>
      <trkpt lat="44.28005" lon="1.03749">
        <ele>229.2</ele>
        <time>2024-06-17T14:02:16+02:00</time>
      </trkpt>
      <trkpt lat="44.27996" lon="1.03758">
        <ele>230.2</ele>
        <time>2024-06-17T14:02:26+02:00</time>
      </trkpt>
      <trkpt lat="44.27989" lon="1.03765">
        <ele>230.5</ele>
        <time>2024-06-17T14:02:41+02:00</time>
      </trkpt>
      <trkpt lat="44.27987" lon="1.03784">
        <ele>232.5</ele>
        <time>2024-06-17T14:02:56+02:00</time>
      </trkpt>
      <trkpt lat="44.27988" lon="1.03803">
        <ele>234.1</ele>
        <time>2024-06-17T14:03:11+02:00</time>
      </trkpt>
      <trkpt lat="44.27987" lon="1.03818">
        <ele>234.5</ele>
        <time>2024-06-17T14:03:20+02:00</time>
      </trkpt>
      <trkpt lat="44.27987" lon="1.03831">
        <ele>235</ele>
        <time>2024-06-17T14:03:29+02:00</time>
      </trkpt>
      <trkpt lat="44.27987" lon="1.03845">
        <ele>235.4</ele>
        <time>2024-06-17T14:03:39+02:00</time>
      </trkpt>
      <trkpt lat="44.27984" lon="1.03858">
        <ele>235.7</ele>
        <time>2024-06-17T14:03:48+02:00</time>
      </trkpt>
      <trkpt lat="44.27979" lon="1.03873">
        <ele>236.3</ele>
        <time>2024-06-17T14:03:58+02:00</time>
      </trkpt>
      <trkpt lat="44.27974" lon="1.03885">
        <ele>236.8</ele>
        <time>2024-06-17T14:04:08+02:00</time>
      </trkpt>
      <trkpt lat="44.27966" lon="1.03894">
        <ele>236.4</ele>
        <time>2024-06-17T14:04:17+02:00</time>
      </trkpt>
      <trkpt lat="44.2796" lon="1.03903">
        <ele>235.9</ele>
        <time>2024-06-17T14:04:27+02:00</time>
      </trkpt>
      <trkpt lat="44.27951" lon="1.03911">
        <ele>235.4</ele>
        <time>2024-06-17T14:04:36+02:00</time>
      </trkpt>
      <trkpt lat="44.27944" lon="1.03921">
        <ele>235.3</ele>
        <time>2024-06-17T14:04:46+02:00</time>
      </trkpt>
      <trkpt lat="44.27939" lon="1.03936">
        <ele>236.1</ele>
        <time>2024-06-17T14:05:01+02:00</time>
      </trkpt>
      <trkpt lat="44.2793" lon="1.0394">
        <ele>236</ele>
        <time>2024-06-17T14:05:31+02:00</time>
      </trkpt>
      <trkpt lat="44.27934" lon="1.03958">
        <ele>237.1</ele>
        <time>2024-06-17T14:05:50+02:00</time>
      </trkpt>
      <trkpt lat="44.27936" lon="1.03973">
        <ele>237.7</ele>
        <time>2024-06-17T14:06:00+02:00</time>
      </trkpt>
      <trkpt lat="44.27937" lon="1.03989">
        <ele>238.2</ele>
        <time>2024-06-17T14:06:10+02:00</time>
      </trkpt>
      <trkpt lat="44.27937" lon="1.04002">
        <ele>238.5</ele>
        <time>2024-06-17T14:06:20+02:00</time>
      </trkpt>
      <trkpt lat="44.2794" lon="1.04015">
        <ele>238.8</ele>
        <time>2024-06-17T14:07:15+02:00</time>
      </trkpt>
      <trkpt lat="44.27944" lon="1.04029">
        <ele>239</ele>
        <time>2024-06-17T14:07:25+02:00</time>
      </trkpt>
      <trkpt lat="44.27946" lon="1.04043">
        <ele>239</ele>
        <time>2024-06-17T14:07:34+02:00</time>
      </trkpt>
      <trkpt lat="44.2795" lon="1.04056">
        <ele>239.2</ele>
        <time>2024-06-17T14:07:44+02:00</time>
      </trkpt>
      <trkpt lat="44.27953" lon="1.04069">
        <ele>239.3</ele>
        <time>2024-06-17T14:07:53+02:00</time>
      </trkpt>
      <trkpt lat="44.27956" lon="1.04088">
        <ele>239.3</ele>
        <time>2024-06-17T14:08:07+02:00</time>
      </trkpt>
      <trkpt lat="44.27957" lon="1.04102">
        <ele>239.1</ele>
        <time>2024-06-17T14:08:17+02:00</time>
      </trkpt>
      <trkpt lat="44.27952" lon="1.04117">
        <ele>238.5</ele>
        <time>2024-06-17T14:08:26+02:00</time>
      </trkpt>
      <trkpt lat="44.27948" lon="1.04129">
        <ele>238.2</ele>
        <time>2024-06-17T14:08:36+02:00</time>
      </trkpt>
      <trkpt lat="44.27941" lon="1.04146">
        <ele>237.5</ele>
        <time>2024-06-17T14:08:50+02:00</time>
      </trkpt>
      <trkpt lat="44.27931" lon="1.0416">
        <ele>236.3</ele>
        <time>2024-06-17T14:09:35+02:00</time>
      </trkpt>
      <trkpt lat="44.27922" lon="1.04151">
        <ele>236</ele>
        <time>2024-06-17T14:09:44+02:00</time>
      </trkpt>
      <trkpt lat="44.27911" lon="1.04146">
        <ele>235.5</ele>
        <time>2024-06-17T14:09:54+02:00</time>
      </trkpt>
      <trkpt lat="44.279" lon="1.04142">
        <ele>235.3</ele>
        <time>2024-06-17T14:10:04+02:00</time>
      </trkpt>
      <trkpt lat="44.2789" lon="1.04137">
        <ele>235</ele>
        <time>2024-06-17T14:10:14+02:00</time>
      </trkpt>
      <trkpt lat="44.27877" lon="1.04128">
        <ele>234.3</ele>
        <time>2024-06-17T14:10:39+02:00</time>
      </trkpt>
      <trkpt lat="44.27866" lon="1.04122">
        <ele>233.8</ele>
        <time>2024-06-17T14:10:49+02:00</time>
      </trkpt>
      <trkpt lat="44.27855" lon="1.04115">
        <ele>233.6</ele>
        <time>2024-06-17T14:10:59+02:00</time>
      </trkpt>
      <trkpt lat="44.27843" lon="1.0411">
        <ele>233.4</ele>
        <time>2024-06-17T14:11:08+02:00</time>
      </trkpt>
      <trkpt lat="44.27832" lon="1.04108">
        <ele>233.1</ele>
        <time>2024-06-17T14:11:18+02:00</time>
      </trkpt>
      <trkpt lat="44.27822" lon="1.04106">
        <ele>232.8</ele>
        <time>2024-06-17T14:11:28+02:00</time>
      </trkpt>
      <trkpt lat="44.27812" lon="1.04097">
        <ele>232.7</ele>
        <time>2024-06-17T14:11:38+02:00</time>
      </trkpt>
      <trkpt lat="44.27802" lon="1.04097">
        <ele>232.5</ele>
        <time>2024-06-17T14:11:48+02:00</time>
      </trkpt>
      <trkpt lat="44.27792" lon="1.04094">
        <ele>232.6</ele>
        <time>2024-06-17T14:11:57+02:00</time>
      </trkpt>
      <trkpt lat="44.2778" lon="1.04094">
        <ele>232.6</ele>
        <time>2024-06-17T14:12:07+02:00</time>
      </trkpt>
      <trkpt lat="44.27768" lon="1.04091">
        <ele>233</ele>
        <time>2024-06-17T14:12:16+02:00</time>
      </trkpt>
      <trkpt lat="44.27757" lon="1.04087">
        <ele>233.5</ele>
        <time>2024-06-17T14:12:26+02:00</time>
      </trkpt>
      <trkpt lat="44.27745" lon="1.04085">
        <ele>233.7</ele>
        <time>2024-06-17T14:12:36+02:00</time>
      </trkpt>
      <trkpt lat="44.27734" lon="1.04081">
        <ele>233.5</ele>
        <time>2024-06-17T14:12:45+02:00</time>
      </trkpt>
      <trkpt lat="44.27723" lon="1.04077">
        <ele>233.3</ele>
        <time>2024-06-17T14:12:55+02:00</time>
      </trkpt>
      <trkpt lat="44.27711" lon="1.04077">
        <ele>232.8</ele>
        <time>2024-06-17T14:13:05+02:00</time>
      </trkpt>
      <trkpt lat="44.27701" lon="1.04077">
        <ele>232.5</ele>
        <time>2024-06-17T14:13:15+02:00</time>
      </trkpt>
      <trkpt lat="44.27689" lon="1.04077">
        <ele>232</ele>
        <time>2024-06-17T14:13:25+02:00</time>
      </trkpt>
      <trkpt lat="44.27678" lon="1.04078">
        <ele>231.6</ele>
        <time>2024-06-17T14:13:34+02:00</time>
      </trkpt>
      <trkpt lat="44.27665" lon="1.04076">
        <ele>231.2</ele>
        <time>2024-06-17T14:13:44+02:00</time>
      </trkpt>
      <trkpt lat="44.27656" lon="1.04074">
        <ele>230.6</ele>
        <time>2024-06-17T14:13:53+02:00</time>
      </trkpt>
      <trkpt lat="44.27644" lon="1.04072">
        <ele>229.8</ele>
        <time>2024-06-17T14:14:02+02:00</time>
      </trkpt>
      <trkpt lat="44.27633" lon="1.04073">
        <ele>229.1</ele>
        <time>2024-06-17T14:14:12+02:00</time>
      </trkpt>
      <trkpt lat="44.27622" lon="1.04072">
        <ele>228.5</ele>
        <time>2024-06-17T14:14:21+02:00</time>
      </trkpt>
      <trkpt lat="44.2761" lon="1.04073">
        <ele>228</ele>
        <time>2024-06-17T14:14:31+02:00</time>
      </trkpt>
      <trkpt lat="44.27599" lon="1.04069">
        <ele>227.5</ele>
        <time>2024-06-17T14:14:41+02:00</time>
      </trkpt>
      <trkpt lat="44.27585" lon="1.04072">
        <ele>227.1</ele>
        <time>2024-06-17T14:15:15+02:00</time>
      </trkpt>
      <trkpt lat="44.27573" lon="1.04072">
        <ele>226.6</ele>
        <time>2024-06-17T14:15:25+02:00</time>
      </trkpt>
      <trkpt lat="44.2756" lon="1.04072">
        <ele>226.1</ele>
        <time>2024-06-17T14:15:35+02:00</time>
      </trkpt>
      <trkpt lat="44.27548" lon="1.04071">
        <ele>225.6</ele>
        <time>2024-06-17T14:15:45+02:00</time>
      </trkpt>
      <trkpt lat="44.27537" lon="1.0407">
        <ele>225</ele>
        <time>2024-06-17T14:15:54+02:00</time>
      </trkpt>
      <trkpt lat="44.27524" lon="1.0407">
        <ele>224.4</ele>
        <time>2024-06-17T14:16:04+02:00</time>
      </trkpt>
      <trkpt lat="44.27512" lon="1.04067">
        <ele>224.2</ele>
        <time>2024-06-17T14:16:14+02:00</time>
      </trkpt>
      <trkpt lat="44.27501" lon="1.04059">
        <ele>224</ele>
        <time>2024-06-17T14:16:24+02:00</time>
      </trkpt>
      <trkpt lat="44.27495" lon="1.04045">
        <ele>223.6</ele>
        <time>2024-06-17T14:16:34+02:00</time>
      </trkpt>
      <trkpt lat="44.27491" lon="1.04028">
        <ele>223</ele>
        <time>2024-06-17T14:16:44+02:00</time>
      </trkpt>
      <trkpt lat="44.27485" lon="1.04014">
        <ele>222.5</ele>
        <time>2024-06-17T14:16:54+02:00</time>
      </trkpt>
      <trkpt lat="44.27478" lon="1.04001">
        <ele>222</ele>
        <time>2024-06-17T14:17:03+02:00</time>
      </trkpt>
      <trkpt lat="44.27474" lon="1.03986">
        <ele>221.5</ele>
        <time>2024-06-17T14:17:13+02:00</time>
      </trkpt>
      <trkpt lat="44.27469" lon="1.0397">
        <ele>220.8</ele>
        <time>2024-06-17T14:17:23+02:00</time>
      </trkpt>
      <trkpt lat="44.27468" lon="1.03953">
        <ele>220.2</ele>
        <time>2024-06-17T14:17:32+02:00</time>
      </trkpt>
      <trkpt lat="44.27471" lon="1.0394">
        <ele>219.6</ele>
        <time>2024-06-17T14:17:42+02:00</time>
      </trkpt>
      <trkpt lat="44.27479" lon="1.03927">
        <ele>218.9</ele>
        <time>2024-06-17T14:17:52+02:00</time>
      </trkpt>
      <trkpt lat="44.27487" lon="1.03916">
        <ele>218.5</ele>
        <time>2024-06-17T14:18:01+02:00</time>
      </trkpt>
      <trkpt lat="44.27497" lon="1.03906">
        <ele>218.5</ele>
        <time>2024-06-17T14:18:11+02:00</time>
      </trkpt>
      <trkpt lat="44.27506" lon="1.03895">
        <ele>218.4</ele>
        <time>2024-06-17T14:18:20+02:00</time>
      </trkpt>
      <trkpt lat="44.27514" lon="1.03885">
        <ele>218.4</ele>
        <time>2024-06-17T14:18:30+02:00</time>
      </trkpt>
      <trkpt lat="44.27522" lon="1.03875">
        <ele>218.3</ele>
        <time>2024-06-17T14:18:39+02:00</time>
      </trkpt>
      <trkpt lat="44.2753" lon="1.03861">
        <ele>218.2</ele>
        <time>2024-06-17T14:18:48+02:00</time>
      </trkpt>
      <trkpt lat="44.27536" lon="1.03846">
        <ele>218</ele>
        <time>2024-06-17T14:18:58+02:00</time>
      </trkpt>
      <trkpt lat="44.27538" lon="1.03831">
        <ele>217.7</ele>
        <time>2024-06-17T14:19:07+02:00</time>
      </trkpt>
      <trkpt lat="44.27542" lon="1.03815">
        <ele>217.3</ele>
        <time>2024-06-17T14:19:17+02:00</time>
      </trkpt>
      <trkpt lat="44.27545" lon="1.03798">
        <ele>216.9</ele>
        <time>2024-06-17T14:19:27+02:00</time>
      </trkpt>
      <trkpt lat="44.27548" lon="1.0378">
        <ele>216.6</ele>
        <time>2024-06-17T14:19:37+02:00</time>
      </trkpt>
      <trkpt lat="44.27551" lon="1.03764">
        <ele>216.2</ele>
        <time>2024-06-17T14:19:47+02:00</time>
      </trkpt>
      <trkpt lat="44.27553" lon="1.03751">
        <ele>215.8</ele>
        <time>2024-06-17T14:19:57+02:00</time>
      </trkpt>
      <trkpt lat="44.27554" lon="1.03738">
        <ele>215.5</ele>
        <time>2024-06-17T14:20:05+02:00</time>
      </trkpt>
      <trkpt lat="44.27553" lon="1.03721">
        <ele>214.7</ele>
        <time>2024-06-17T14:20:19+02:00</time>
      </trkpt>
      <trkpt lat="44.2755" lon="1.03707">
        <ele>214</ele>
        <time>2024-06-17T14:20:29+02:00</time>
      </trkpt>
      <trkpt lat="44.27544" lon="1.03696">
        <ele>213.2</ele>
        <time>2024-06-17T14:20:38+02:00</time>
      </trkpt>
      <trkpt lat="44.27539" lon="1.03683">
        <ele>211.9</ele>
        <time>2024-06-17T14:21:03+02:00</time>
      </trkpt>
      <trkpt lat="44.27527" lon="1.03679">
        <ele>210.3</ele>
        <time>2024-06-17T14:21:46+02:00</time>
      </trkpt>
      <trkpt lat="44.27518" lon="1.0367">
        <ele>210.4</ele>
        <time>2024-06-17T14:21:55+02:00</time>
      </trkpt>
      <trkpt lat="44.27531" lon="1.03666">
        <ele>209.4</ele>
        <time>2024-06-17T14:22:19+02:00</time>
      </trkpt>
      <trkpt lat="44.27539" lon="1.03661">
        <ele>210.3</ele>
        <time>2024-06-17T14:22:33+02:00</time>
      </trkpt>
      <trkpt lat="44.27539" lon="1.03643">
        <ele>209</ele>
        <time>2024-06-17T14:23:03+02:00</time>
      </trkpt>
      <trkpt lat="44.27537" lon="1.03626">
        <ele>207.1</ele>
        <time>2024-06-17T14:23:12+02:00</time>
      </trkpt>
      <trkpt lat="44.27542" lon="1.03608">
        <ele>206.7</ele>
        <time>2024-06-17T14:23:27+02:00</time>
      </trkpt>
      <trkpt lat="44.27546" lon="1.03595">
        <ele>205.2</ele>
        <time>2024-06-17T14:23:37+02:00</time>
      </trkpt>
      <trkpt lat="44.2755" lon="1.03582">
        <ele>202.8</ele>
        <time>2024-06-17T14:23:46+02:00</time>
      </trkpt>
      <trkpt lat="44.27554" lon="1.03568">
        <ele>200</ele>
        <time>2024-06-17T14:23:56+02:00</time>
      </trkpt>
      <trkpt lat="44.27557" lon="1.03554">
        <ele>197.3</ele>
        <time>2024-06-17T14:24:06+02:00</time>
      </trkpt>
      <trkpt lat="44.27561" lon="1.03541">
        <ele>197.9</ele>
        <time>2024-06-17T14:24:15+02:00</time>
      </trkpt>
      <trkpt lat="44.27568" lon="1.03526">
        <ele>198.5</ele>
        <time>2024-06-17T14:24:25+02:00</time>
      </trkpt>
      <trkpt lat="44.27571" lon="1.03512">
        <ele>197</ele>
        <time>2024-06-17T14:24:35+02:00</time>
      </trkpt>
      <trkpt lat="44.27573" lon="1.03499">
        <ele>195.2</ele>
        <time>2024-06-17T14:24:45+02:00</time>
      </trkpt>
      <trkpt lat="44.27576" lon="1.03483">
        <ele>193</ele>
        <time>2024-06-17T14:25:00+02:00</time>
      </trkpt>
      <trkpt lat="44.27581" lon="1.03469">
        <ele>191.3</ele>
        <time>2024-06-17T14:25:10+02:00</time>
      </trkpt>
      <trkpt lat="44.27586" lon="1.03457">
        <ele>191.2</ele>
        <time>2024-06-17T14:25:20+02:00</time>
      </trkpt>
      <trkpt lat="44.27586" lon="1.03444">
        <ele>189</ele>
        <time>2024-06-17T14:25:30+02:00</time>
      </trkpt>
      <trkpt lat="44.2759" lon="1.03429">
        <ele>188.7</ele>
        <time>2024-06-17T14:25:39+02:00</time>
      </trkpt>
      <trkpt lat="44.27593" lon="1.03416">
        <ele>188.3</ele>
        <time>2024-06-17T14:25:49+02:00</time>
      </trkpt>
      <trkpt lat="44.27594" lon="1.03399">
        <ele>187.7</ele>
        <time>2024-06-17T14:25:59+02:00</time>
      </trkpt>
      <trkpt lat="44.27595" lon="1.03386">
        <ele>187</ele>
        <time>2024-06-17T14:26:09+02:00</time>
      </trkpt>
      <trkpt lat="44.27591" lon="1.03369">
        <ele>184</ele>
        <time>2024-06-17T14:26:24+02:00</time>
      </trkpt>
      <trkpt lat="44.2759" lon="1.03353">
        <ele>181.6</ele>
        <time>2024-06-17T14:26:33+02:00</time>
      </trkpt>
      <trkpt lat="44.27587" lon="1.0334">
        <ele>179.3</ele>
        <time>2024-06-17T14:26:43+02:00</time>
      </trkpt>
      <trkpt lat="44.27587" lon="1.03327">
        <ele>177.7</ele>
        <time>2024-06-17T14:26:53+02:00</time>
      </trkpt>
      <trkpt lat="44.27587" lon="1.03315">
        <ele>176</ele>
        <time>2024-06-17T14:27:23+02:00</time>
      </trkpt>
      <trkpt lat="44.27593" lon="1.03305">
        <ele>176.1</ele>
        <time>2024-06-17T14:27:33+02:00</time>
      </trkpt>
      <trkpt lat="44.27604" lon="1.03299">
        <ele>177.4</ele>
        <time>2024-06-17T14:27:42+02:00</time>
      </trkpt>
      <trkpt lat="44.27614" lon="1.03292">
        <ele>177.7</ele>
        <time>2024-06-17T14:27:52+02:00</time>
      </trkpt>
      <trkpt lat="44.27624" lon="1.03284">
        <ele>177.2</ele>
        <time>2024-06-17T14:28:02+02:00</time>
      </trkpt>
      <trkpt lat="44.27633" lon="1.03279">
        <ele>176.8</ele>
        <time>2024-06-17T14:28:11+02:00</time>
      </trkpt>
      <trkpt lat="44.27642" lon="1.03276">
        <ele>177</ele>
        <time>2024-06-17T14:28:21+02:00</time>
      </trkpt>
      <trkpt lat="44.27652" lon="1.03273">
        <ele>177.4</ele>
        <time>2024-06-17T14:28:46+02:00</time>
      </trkpt>
      <trkpt lat="44.27666" lon="1.0327">
        <ele>178.1</ele>
        <time>2024-06-17T14:29:01+02:00</time>
      </trkpt>
      <trkpt lat="44.27676" lon="1.03274">
        <ele>178.4</ele>
        <time>2024-06-17T14:29:10+02:00</time>
      </trkpt>
      <trkpt lat="44.27686" lon="1.03276">
        <ele>178.2</ele>
        <time>2024-06-17T14:29:20+02:00</time>
      </trkpt>
      <trkpt lat="44.27696" lon="1.03278">
        <ele>178.2</ele>
        <time>2024-06-17T14:29:29+02:00</time>
      </trkpt>
      <trkpt lat="44.27706" lon="1.03285">
        <ele>180.2</ele>
        <time>2024-06-17T14:29:39+02:00</time>
      </trkpt>
      <trkpt lat="44.27716" lon="1.03289">
        <ele>180.5</ele>
        <time>2024-06-17T14:29:49+02:00</time>
      </trkpt>
      <trkpt lat="44.27725" lon="1.03295">
        <ele>181</ele>
        <time>2024-06-17T14:29:58+02:00</time>
      </trkpt>
      <trkpt lat="44.27737" lon="1.03301">
        <ele>181.4</ele>
        <time>2024-06-17T14:30:13+02:00</time>
      </trkpt>
      <trkpt lat="44.27746" lon="1.03296">
        <ele>180.7</ele>
        <time>2024-06-17T14:30:32+02:00</time>
      </trkpt>
      <trkpt lat="44.27754" lon="1.03288">
        <ele>180.9</ele>
        <time>2024-06-17T14:30:47+02:00</time>
      </trkpt>
      <trkpt lat="44.27759" lon="1.03275">
        <ele>182.2</ele>
        <time>2024-06-17T14:31:02+02:00</time>
      </trkpt>
      <trkpt lat="44.2777" lon="1.0327">
        <ele>185.9</ele>
        <time>2024-06-17T14:31:16+02:00</time>
      </trkpt>
      <trkpt lat="44.27775" lon="1.03255">
        <ele>190.5</ele>
        <time>2024-06-17T14:31:49+02:00</time>
      </trkpt>
      <trkpt lat="44.27771" lon="1.03239">
        <ele>192.5</ele>
        <time>2024-06-17T14:32:18+02:00</time>
      </trkpt>
      <trkpt lat="44.27766" lon="1.03229">
        <ele>192.4</ele>
        <time>2024-06-17T14:33:13+02:00</time>
      </trkpt>
      <trkpt lat="44.27766" lon="1.03216">
        <ele>194.9</ele>
        <time>2024-06-17T14:33:27+02:00</time>
      </trkpt>
      <trkpt lat="44.27765" lon="1.03203">
        <ele>196.9</ele>
        <time>2024-06-17T14:34:11+02:00</time>
      </trkpt>
      <trkpt lat="44.2776" lon="1.0319">
        <ele>197.6</ele>
        <time>2024-06-17T14:35:19+02:00</time>
      </trkpt>
      <trkpt lat="44.27752" lon="1.03181">
        <ele>197.6</ele>
        <time>2024-06-17T14:36:23+02:00</time>
      </trkpt>
      <trkpt lat="44.27744" lon="1.0317">
        <ele>200.5</ele>
        <time>2024-06-17T14:36:43+02:00</time>
      </trkpt>
      <trkpt lat="44.27729" lon="1.03166">
        <ele>201</ele>
        <time>2024-06-17T14:37:22+02:00</time>
      </trkpt>
      <trkpt lat="44.2772" lon="1.03161">
        <ele>202.3</ele>
        <time>2024-06-17T14:37:52+02:00</time>
      </trkpt>
      <trkpt lat="44.27708" lon="1.03161">
        <ele>200.3</ele>
        <time>2024-06-17T14:38:06+02:00</time>
      </trkpt>
      <trkpt lat="44.277" lon="1.0315">
        <ele>203.4</ele>
        <time>2024-06-17T14:38:20+02:00</time>
      </trkpt>
      <trkpt lat="44.27696" lon="1.03139">
        <ele>207.2</ele>
        <time>2024-06-17T14:38:50+02:00</time>
      </trkpt>
      <trkpt lat="44.27681" lon="1.03131">
        <ele>207.4</ele>
        <time>2024-06-17T14:39:24+02:00</time>
      </trkpt>
      <trkpt lat="44.27672" lon="1.03133">
        <ele>205.7</ele>
        <time>2024-06-17T14:39:38+02:00</time>
      </trkpt>
      <trkpt lat="44.2766" lon="1.03133">
        <ele>204.8</ele>
        <time>2024-06-17T14:40:02+02:00</time>
      </trkpt>
      <trkpt lat="44.27646" lon="1.03127">
        <ele>206</ele>
        <time>2024-06-17T14:40:22+02:00</time>
      </trkpt>
      <trkpt lat="44.27636" lon="1.03121">
        <ele>206.3</ele>
        <time>2024-06-17T14:40:32+02:00</time>
      </trkpt>
      <trkpt lat="44.27631" lon="1.03105">
        <ele>206.9</ele>
        <time>2024-06-17T14:41:36+02:00</time>
      </trkpt>
      <trkpt lat="44.27628" lon="1.03089">
        <ele>205.5</ele>
        <time>2024-06-17T14:41:51+02:00</time>
      </trkpt>
      <trkpt lat="44.27629" lon="1.03073">
        <ele>205.3</ele>
        <time>2024-06-17T14:42:06+02:00</time>
      </trkpt>
      <trkpt lat="44.2763" lon="1.0306">
        <ele>204.6</ele>
        <time>2024-06-17T14:42:15+02:00</time>
      </trkpt>
      <trkpt lat="44.27633" lon="1.03046">
        <ele>204.3</ele>
        <time>2024-06-17T14:42:25+02:00</time>
      </trkpt>
      <trkpt lat="44.27635" lon="1.03033">
        <ele>203.3</ele>
        <time>2024-06-17T14:42:35+02:00</time>
      </trkpt>
      <trkpt lat="44.27641" lon="1.03019">
        <ele>204.2</ele>
        <time>2024-06-17T14:42:59+02:00</time>
      </trkpt>
      <trkpt lat="44.27646" lon="1.03006">
        <ele>203.9</ele>
        <time>2024-06-17T14:43:08+02:00</time>
      </trkpt>
      <trkpt lat="44.27647" lon="1.02991">
        <ele>201.5</ele>
        <time>2024-06-17T14:43:18+02:00</time>
      </trkpt>
      <trkpt lat="44.27649" lon="1.02977">
        <ele>199.4</ele>
        <time>2024-06-17T14:43:28+02:00</time>
      </trkpt>
      <trkpt lat="44.27652" lon="1.02964">
        <ele>197.6</ele>
        <time>2024-06-17T14:43:37+02:00</time>
      </trkpt>
      <trkpt lat="44.27656" lon="1.02949">
        <ele>194.5</ele>
        <time>2024-06-17T14:43:57+02:00</time>
      </trkpt>
      <trkpt lat="44.27662" lon="1.02937">
        <ele>193.7</ele>
        <time>2024-06-17T14:44:12+02:00</time>
      </trkpt>
      <trkpt lat="44.27663" lon="1.02919">
        <ele>191.2</ele>
        <time>2024-06-17T14:44:26+02:00</time>
      </trkpt>
      <trkpt lat="44.27663" lon="1.02906">
        <ele>193.2</ele>
        <time>2024-06-17T14:44:36+02:00</time>
      </trkpt>
      <trkpt lat="44.27657" lon="1.02897">
        <ele>194.3</ele>
        <time>2024-06-17T14:45:50+02:00</time>
      </trkpt>
      <trkpt lat="44.27649" lon="1.02887">
        <ele>194.4</ele>
        <time>2024-06-17T14:46:04+02:00</time>
      </trkpt>
      <trkpt lat="44.27646" lon="1.02873">
        <ele>195.8</ele>
        <time>2024-06-17T14:46:48+02:00</time>
      </trkpt>
      <trkpt lat="44.27644" lon="1.02859">
        <ele>196.7</ele>
        <time>2024-06-17T14:46:57+02:00</time>
      </trkpt>
      <trkpt lat="44.27644" lon="1.02841">
        <ele>198.3</ele>
        <time>2024-06-17T14:47:11+02:00</time>
      </trkpt>
      <trkpt lat="44.27647" lon="1.02827">
        <ele>201</ele>
        <time>2024-06-17T14:47:26+02:00</time>
      </trkpt>
      <trkpt lat="44.27648" lon="1.02809">
        <ele>202.8</ele>
        <time>2024-06-17T14:47:40+02:00</time>
      </trkpt>
      <trkpt lat="44.27652" lon="1.02792">
        <ele>205.2</ele>
        <time>2024-06-17T14:47:55+02:00</time>
      </trkpt>
      <trkpt lat="44.27659" lon="1.02779">
        <ele>207.1</ele>
        <time>2024-06-17T14:48:09+02:00</time>
      </trkpt>
      <trkpt lat="44.27664" lon="1.02767">
        <ele>207.5</ele>
        <time>2024-06-17T14:48:23+02:00</time>
      </trkpt>
      <trkpt lat="44.27669" lon="1.02756">
        <ele>207.6</ele>
        <time>2024-06-17T14:48:32+02:00</time>
      </trkpt>
      <trkpt lat="44.27669" lon="1.02742">
        <ele>208</ele>
        <time>2024-06-17T14:48:52+02:00</time>
      </trkpt>
      <trkpt lat="44.27662" lon="1.02732">
        <ele>209.4</ele>
        <time>2024-06-17T14:49:07+02:00</time>
      </trkpt>
      <trkpt lat="44.27653" lon="1.02716">
        <ele>211.3</ele>
        <time>2024-06-17T14:49:46+02:00</time>
      </trkpt>
      <trkpt lat="44.27642" lon="1.02706">
        <ele>212.5</ele>
        <time>2024-06-17T14:50:00+02:00</time>
      </trkpt>
      <trkpt lat="44.27631" lon="1.02699">
        <ele>213.4</ele>
        <time>2024-06-17T14:50:14+02:00</time>
      </trkpt>
      <trkpt lat="44.2762" lon="1.02696">
        <ele>214.3</ele>
        <time>2024-06-17T14:51:04+02:00</time>
      </trkpt>
      <trkpt lat="44.27612" lon="1.02686">
        <ele>215.3</ele>
        <time>2024-06-17T14:51:14+02:00</time>
      </trkpt>
      <trkpt lat="44.27605" lon="1.02677">
        <ele>215.8</ele>
        <time>2024-06-17T14:51:24+02:00</time>
      </trkpt>
      <trkpt lat="44.27599" lon="1.02667">
        <ele>216.4</ele>
        <time>2024-06-17T14:51:43+02:00</time>
      </trkpt>
      <trkpt lat="44.27591" lon="1.02653">
        <ele>217.2</ele>
        <time>2024-06-17T14:51:53+02:00</time>
      </trkpt>
      <trkpt lat="44.27584" lon="1.02641">
        <ele>217.9</ele>
        <time>2024-06-17T14:52:03+02:00</time>
      </trkpt>
      <trkpt lat="44.27577" lon="1.02632">
        <ele>218</ele>
        <time>2024-06-17T14:52:12+02:00</time>
      </trkpt>
      <trkpt lat="44.27572" lon="1.02622">
        <ele>218.2</ele>
        <time>2024-06-17T14:52:22+02:00</time>
      </trkpt>
      <trkpt lat="44.27565" lon="1.02613">
        <ele>218.3</ele>
        <time>2024-06-17T14:52:31+02:00</time>
      </trkpt>
      <trkpt lat="44.27561" lon="1.02598">
        <ele>218.2</ele>
        <time>2024-06-17T14:52:45+02:00</time>
      </trkpt>
      <trkpt lat="44.27554" lon="1.02579">
        <ele>217.9</ele>
        <time>2024-06-17T14:52:59+02:00</time>
      </trkpt>
      <trkpt lat="44.27541" lon="1.0257">
        <ele>217</ele>
        <time>2024-06-17T14:53:13+02:00</time>
      </trkpt>
      <trkpt lat="44.27531" lon="1.02566">
        <ele>216.3</ele>
        <time>2024-06-17T14:53:23+02:00</time>
      </trkpt>
      <trkpt lat="44.27521" lon="1.02558">
        <ele>215</ele>
        <time>2024-06-17T14:53:36+02:00</time>
      </trkpt>
      <trkpt lat="44.27512" lon="1.02553">
        <ele>213.7</ele>
        <time>2024-06-17T14:53:46+02:00</time>
      </trkpt>
      <trkpt lat="44.27501" lon="1.02552">
        <ele>212.1</ele>
        <time>2024-06-17T14:53:55+02:00</time>
      </trkpt>
      <trkpt lat="44.27491" lon="1.02553">
        <ele>211.1</ele>
        <time>2024-06-17T14:54:04+02:00</time>
      </trkpt>
      <trkpt lat="44.27479" lon="1.02556">
        <ele>209.7</ele>
        <time>2024-06-17T14:54:18+02:00</time>
      </trkpt>
      <trkpt lat="44.27467" lon="1.02548">
        <ele>208.4</ele>
        <time>2024-06-17T14:54:32+02:00</time>
      </trkpt>
      <trkpt lat="44.27454" lon="1.02544">
        <ele>207.2</ele>
        <time>2024-06-17T14:54:47+02:00</time>
      </trkpt>
      <trkpt lat="44.27446" lon="1.0255">
        <ele>205.7</ele>
        <time>2024-06-17T14:55:12+02:00</time>
      </trkpt>
      <trkpt lat="44.27441" lon="1.02554">
        <ele>205.6</ele>
        <time>2024-06-17T14:56:10+02:00</time>
      </trkpt>
      <trkpt lat="44.27435" lon="1.02566">
        <ele>205</ele>
        <time>2024-06-17T14:56:20+02:00</time>
      </trkpt>
      <trkpt lat="44.27429" lon="1.02578">
        <ele>204.7</ele>
        <time>2024-06-17T14:56:29+02:00</time>
      </trkpt>
      <trkpt lat="44.27419" lon="1.02595">
        <ele>204.1</ele>
        <time>2024-06-17T14:56:43+02:00</time>
      </trkpt>
      <trkpt lat="44.27413" lon="1.02609">
        <ele>202.8</ele>
        <time>2024-06-17T14:56:52+02:00</time>
      </trkpt>
      <trkpt lat="44.27405" lon="1.02618">
        <ele>202.7</ele>
        <time>2024-06-17T14:57:01+02:00</time>
      </trkpt>
      <trkpt lat="44.27396" lon="1.02627">
        <ele>203</ele>
        <time>2024-06-17T14:57:11+02:00</time>
      </trkpt>
      <trkpt lat="44.27387" lon="1.02636">
        <ele>203.4</ele>
        <time>2024-06-17T14:57:21+02:00</time>
      </trkpt>
      <trkpt lat="44.27381" lon="1.02646">
        <ele>202.4</ele>
        <time>2024-06-17T14:57:36+02:00</time>
      </trkpt>
      <trkpt lat="44.27374" lon="1.02662">
        <ele>200.9</ele>
        <time>2024-06-17T14:58:00+02:00</time>
      </trkpt>
      <trkpt lat="44.27369" lon="1.02674">
        <ele>200.8</ele>
        <time>2024-06-17T14:59:15+02:00</time>
      </trkpt>
      <trkpt lat="44.27365" lon="1.02685">
        <ele>201.4</ele>
        <time>2024-06-17T14:59:35+02:00</time>
      </trkpt>
      <trkpt lat="44.27358" lon="1.02698">
        <ele>202.1</ele>
        <time>2024-06-17T15:00:30+02:00</time>
      </trkpt>
      <trkpt lat="44.27353" lon="1.0271">
        <ele>202.1</ele>
        <time>2024-06-17T15:00:39+02:00</time>
      </trkpt>
      <trkpt lat="44.27348" lon="1.02725">
        <ele>202.2</ele>
        <time>2024-06-17T15:00:49+02:00</time>
      </trkpt>
      <trkpt lat="44.27342" lon="1.02739">
        <ele>202.6</ele>
        <time>2024-06-17T15:00:58+02:00</time>
      </trkpt>
      <trkpt lat="44.27336" lon="1.02754">
        <ele>203.3</ele>
        <time>2024-06-17T15:01:13+02:00</time>
      </trkpt>
      <trkpt lat="44.27331" lon="1.02767">
        <ele>203.5</ele>
        <time>2024-06-17T15:01:23+02:00</time>
      </trkpt>
      <trkpt lat="44.27326" lon="1.0278">
        <ele>203.4</ele>
        <time>2024-06-17T15:01:33+02:00</time>
      </trkpt>
      <trkpt lat="44.27317" lon="1.02794">
        <ele>203.4</ele>
        <time>2024-06-17T15:01:43+02:00</time>
      </trkpt>
      <trkpt lat="44.27311" lon="1.02809">
        <ele>203.1</ele>
        <time>2024-06-17T15:01:52+02:00</time>
      </trkpt>
      <trkpt lat="44.27306" lon="1.02827">
        <ele>202.4</ele>
        <time>2024-06-17T15:02:07+02:00</time>
      </trkpt>
      <trkpt lat="44.27301" lon="1.02839">
        <ele>202.2</ele>
        <time>2024-06-17T15:02:17+02:00</time>
      </trkpt>
      <trkpt lat="44.273" lon="1.02853">
        <ele>201.4</ele>
        <time>2024-06-17T15:02:31+02:00</time>
      </trkpt>
      <trkpt lat="44.27297" lon="1.02869">
        <ele>200.7</ele>
        <time>2024-06-17T15:03:16+02:00</time>
      </trkpt>
      <trkpt lat="44.2729" lon="1.02884">
        <ele>201</ele>
        <time>2024-06-17T15:03:26+02:00</time>
      </trkpt>
      <trkpt lat="44.27283" lon="1.02895">
        <ele>201.8</ele>
        <time>2024-06-17T15:03:35+02:00</time>
      </trkpt>
      <trkpt lat="44.27278" lon="1.02907">
        <ele>202.2</ele>
        <time>2024-06-17T15:03:45+02:00</time>
      </trkpt>
      <trkpt lat="44.27273" lon="1.0292">
        <ele>202</ele>
        <time>2024-06-17T15:03:55+02:00</time>
      </trkpt>
      <trkpt lat="44.27266" lon="1.0293">
        <ele>201.8</ele>
        <time>2024-06-17T15:04:05+02:00</time>
      </trkpt>
      <trkpt lat="44.27256" lon="1.02936">
        <ele>202.6</ele>
        <time>2024-06-17T15:04:14+02:00</time>
      </trkpt>
      <trkpt lat="44.27244" lon="1.0294">
        <ele>203.2</ele>
        <time>2024-06-17T15:04:24+02:00</time>
      </trkpt>
      <trkpt lat="44.27233" lon="1.02943">
        <ele>203.1</ele>
        <time>2024-06-17T15:04:33+02:00</time>
      </trkpt>
      <trkpt lat="44.27224" lon="1.02943">
        <ele>203.1</ele>
        <time>2024-06-17T15:04:42+02:00</time>
      </trkpt>
      <trkpt lat="44.27214" lon="1.02941">
        <ele>203.6</ele>
        <time>2024-06-17T15:04:52+02:00</time>
      </trkpt>
      <trkpt lat="44.27202" lon="1.0294">
        <ele>204</ele>
        <time>2024-06-17T15:05:02+02:00</time>
      </trkpt>
      <trkpt lat="44.27191" lon="1.02933">
        <ele>204.9</ele>
        <time>2024-06-17T15:05:11+02:00</time>
      </trkpt>
      <trkpt lat="44.27184" lon="1.02921">
        <ele>205.7</ele>
        <time>2024-06-17T15:05:20+02:00</time>
      </trkpt>
      <trkpt lat="44.27177" lon="1.02906">
        <ele>206.6</ele>
        <time>2024-06-17T15:05:34+02:00</time>
      </trkpt>
      <trkpt lat="44.27169" lon="1.02893">
        <ele>207.7</ele>
        <time>2024-06-17T15:05:44+02:00</time>
      </trkpt>
      <trkpt lat="44.27168" lon="1.02875">
        <ele>208.9</ele>
        <time>2024-06-17T15:05:54+02:00</time>
      </trkpt>
      <trkpt lat="44.27169" lon="1.02862">
        <ele>209.9</ele>
        <time>2024-06-17T15:06:03+02:00</time>
      </trkpt>
      <trkpt lat="44.27165" lon="1.02846">
        <ele>210.4</ele>
        <time>2024-06-17T15:06:13+02:00</time>
      </trkpt>
      <trkpt lat="44.27163" lon="1.0283">
        <ele>210.9</ele>
        <time>2024-06-17T15:06:22+02:00</time>
      </trkpt>
      <trkpt lat="44.27162" lon="1.02816">
        <ele>211.3</ele>
        <time>2024-06-17T15:06:32+02:00</time>
      </trkpt>
      <trkpt lat="44.2716" lon="1.02804">
        <ele>211.6</ele>
        <time>2024-06-17T15:07:32+02:00</time>
      </trkpt>
      <trkpt lat="44.2716" lon="1.02787">
        <ele>212.2</ele>
        <time>2024-06-17T15:07:41+02:00</time>
      </trkpt>
      <trkpt lat="44.27161" lon="1.0277">
        <ele>212.9</ele>
        <time>2024-06-17T15:07:50+02:00</time>
      </trkpt>
      <trkpt lat="44.27162" lon="1.02756">
        <ele>213.5</ele>
        <time>2024-06-17T15:08:44+02:00</time>
      </trkpt>
      <trkpt lat="44.27167" lon="1.02739">
        <ele>214.4</ele>
        <time>2024-06-17T15:09:18+02:00</time>
      </trkpt>
      <trkpt lat="44.27171" lon="1.02725">
        <ele>215</ele>
        <time>2024-06-17T15:09:28+02:00</time>
      </trkpt>
      <trkpt lat="44.27172" lon="1.02711">
        <ele>215.9</ele>
        <time>2024-06-17T15:09:37+02:00</time>
      </trkpt>
      <trkpt lat="44.27176" lon="1.02696">
        <ele>216.9</ele>
        <time>2024-06-17T15:09:47+02:00</time>
      </trkpt>
      <trkpt lat="44.27179" lon="1.02683">
        <ele>217.6</ele>
        <time>2024-06-17T15:09:57+02:00</time>
      </trkpt>
      <trkpt lat="44.27185" lon="1.02669">
        <ele>218.5</ele>
        <time>2024-06-17T15:10:12+02:00</time>
      </trkpt>
      <trkpt lat="44.27187" lon="1.02655">
        <ele>219.1</ele>
        <time>2024-06-17T15:10:21+02:00</time>
      </trkpt>
      <trkpt lat="44.27191" lon="1.02641">
        <ele>219.8</ele>
        <time>2024-06-17T15:10:31+02:00</time>
      </trkpt>
      <trkpt lat="44.27196" lon="1.02627">
        <ele>220.3</ele>
        <time>2024-06-17T15:10:40+02:00</time>
      </trkpt>
      <trkpt lat="44.27201" lon="1.02614">
        <ele>220.5</ele>
        <time>2024-06-17T15:10:50+02:00</time>
      </trkpt>
      <trkpt lat="44.27205" lon="1.02601">
        <ele>220.6</ele>
        <time>2024-06-17T15:10:59+02:00</time>
      </trkpt>
      <trkpt lat="44.27209" lon="1.02589">
        <ele>220.8</ele>
        <time>2024-06-17T15:11:08+02:00</time>
      </trkpt>
      <trkpt lat="44.27213" lon="1.02574">
        <ele>221.1</ele>
        <time>2024-06-17T15:11:17+02:00</time>
      </trkpt>
      <trkpt lat="44.27215" lon="1.0256">
        <ele>221.8</ele>
        <time>2024-06-17T15:11:26+02:00</time>
      </trkpt>
      <trkpt lat="44.27219" lon="1.02546">
        <ele>222.3</ele>
        <time>2024-06-17T15:11:35+02:00</time>
      </trkpt>
      <trkpt lat="44.27222" lon="1.02532">
        <ele>222.8</ele>
        <time>2024-06-17T15:11:45+02:00</time>
      </trkpt>
      <trkpt lat="44.27226" lon="1.02519">
        <ele>222.9</ele>
        <time>2024-06-17T15:11:54+02:00</time>
      </trkpt>
      <trkpt lat="44.2723" lon="1.02507">
        <ele>223.1</ele>
        <time>2024-06-17T15:12:33+02:00</time>
      </trkpt>
      <trkpt lat="44.2723" lon="1.02493">
        <ele>223.5</ele>
        <time>2024-06-17T15:12:43+02:00</time>
      </trkpt>
      <trkpt lat="44.27235" lon="1.02478">
        <ele>223.4</ele>
        <time>2024-06-17T15:12:52+02:00</time>
      </trkpt>
      <trkpt lat="44.27239" lon="1.02464">
        <ele>223.7</ele>
        <time>2024-06-17T15:13:02+02:00</time>
      </trkpt>
      <trkpt lat="44.27243" lon="1.0245">
        <ele>224.4</ele>
        <time>2024-06-17T15:13:11+02:00</time>
      </trkpt>
      <trkpt lat="44.27247" lon="1.02436">
        <ele>224.9</ele>
        <time>2024-06-17T15:13:20+02:00</time>
      </trkpt>
      <trkpt lat="44.27252" lon="1.02421">
        <ele>224.9</ele>
        <time>2024-06-17T15:13:30+02:00</time>
      </trkpt>
      <trkpt lat="44.27256" lon="1.02406">
        <ele>225.2</ele>
        <time>2024-06-17T15:13:39+02:00</time>
      </trkpt>
      <trkpt lat="44.27258" lon="1.02392">
        <ele>225.6</ele>
        <time>2024-06-17T15:13:49+02:00</time>
      </trkpt>
      <trkpt lat="44.27262" lon="1.02377">
        <ele>226.2</ele>
        <time>2024-06-17T15:14:04+02:00</time>
      </trkpt>
      <trkpt lat="44.27265" lon="1.02364">
        <ele>226.9</ele>
        <time>2024-06-17T15:14:13+02:00</time>
      </trkpt>
      <trkpt lat="44.27269" lon="1.02348">
        <ele>227.8</ele>
        <time>2024-06-17T15:14:22+02:00</time>
      </trkpt>
      <trkpt lat="44.27271" lon="1.02334">
        <ele>228.7</ele>
        <time>2024-06-17T15:14:32+02:00</time>
      </trkpt>
      <trkpt lat="44.27273" lon="1.02318">
        <ele>228.8</ele>
        <time>2024-06-17T15:14:56+02:00</time>
      </trkpt>
      <trkpt lat="44.27277" lon="1.02304">
        <ele>229</ele>
        <time>2024-06-17T15:15:06+02:00</time>
      </trkpt>
      <trkpt lat="44.27285" lon="1.02293">
        <ele>229.5</ele>
        <time>2024-06-17T15:15:15+02:00</time>
      </trkpt>
      <trkpt lat="44.27286" lon="1.02278">
        <ele>230</ele>
        <time>2024-06-17T15:15:25+02:00</time>
      </trkpt>
      <trkpt lat="44.27289" lon="1.02262">
        <ele>230</ele>
        <time>2024-06-17T15:15:34+02:00</time>
      </trkpt>
      <trkpt lat="44.27292" lon="1.02248">
        <ele>230</ele>
        <time>2024-06-17T15:15:43+02:00</time>
      </trkpt>
      <trkpt lat="44.27298" lon="1.02232">
        <ele>230.5</ele>
        <time>2024-06-17T15:15:53+02:00</time>
      </trkpt>
      <trkpt lat="44.27258" lon="1.02207">
        <ele>230</ele>
      </trkpt>
      <trkpt lat="44.27199" lon="1.02206">
        <ele>230.9</ele>
      </trkpt>
      <trkpt lat="44.27189" lon="1.02205">
        <ele>230.7</ele>
      </trkpt>
      <trkpt lat="44.27189" lon="1.02162">
        <ele>230.5</ele>
      </trkpt>
      <trkpt lat="44.27206" lon="1.02108">
        <ele>229.8</ele>
      </trkpt>
      <trkpt lat="44.27238" lon="1.02046">
        <ele>230.9</ele>
      </trkpt>
      <trkpt lat="44.27283" lon="1.01978">
        <ele>229.8</ele>
      </trkpt>
      <trkpt lat="44.2728" lon="1.01945">
        <ele>229.9</ele>
      </trkpt>
      <trkpt lat="44.27308" lon="1.01881">
        <ele>229.6</ele>
      </trkpt>
      <trkpt lat="44.27337" lon="1.01823">
        <ele>228.8</ele>
      </trkpt>
      <trkpt lat="44.27394" lon="1.01735">
        <ele>226.8</ele>
      </trkpt>
      <trkpt lat="44.27401" lon="1.01666">
        <ele>226.6</ele>
      </trkpt>
      <trkpt lat="44.27406" lon="1.01619">
        <ele>226.3</ele>
      </trkpt>
      <trkpt lat="44.27421" lon="1.01557">
        <ele>224.7</ele>
      </trkpt>
      <trkpt lat="44.27449" lon="1.01465">
        <ele>219.5</ele>
      </trkpt>
      <trkpt lat="44.27466" lon="1.01411">
        <ele>217.7</ele>
      </trkpt>
      <trkpt lat="44.27506" lon="1.01342">
        <ele>215.8</ele>
      </trkpt>
      <trkpt lat="44.27563" lon="1.01246">
        <ele>211.8</ele>
      </trkpt>
      <trkpt lat="44.2761" lon="1.01295">
        <ele>210</ele>
      </trkpt>
      <trkpt lat="44.27675" lon="1.01375">
        <ele>206.9</ele>
      </trkpt>
      <trkpt lat="44.27719" lon="1.01132">
        <ele>204.5</ele>
        <time>2024-06-17T15:16:02+02:00</time>
      </trkpt>
    </trkseg>
  </trk>
</gpx>